Seago Piraeus — OXVD2 — position and weather

sailwx.info

Track history (hours):
 
Tides and Currents Weather Stations Pressure Air Temp Water Temp Dewpoint Dewpoint Depression Visibility Wind Speed Wind Dir Waves Ship Positions

Seago Piraeus

Last reported at 2016-Jul-29 15:31 UTC. Time now 2016-Jul-29 15:52 UTC.
Position N 39°26' W 000°20'.

Length 294 m; draft 13.4 m.

Type: Ship (hazmat cat A). MMSI: 219117000.

Date/timePositionNaut miles runAvg speedWind from/ knotsBaromVisibWave heightAir tempDewpointWater temp
2016-Jul-29 15:31N 39°26' W 000°20'0 0.0
2016-Jul-29 14:31N 39°26' W 000°20'0 0.0
2016-Jul-29 13:31N 39°26' W 000°20'0 0.0
2016-Jul-29 12:31N 39°26' W 000°20'0 0.0
2016-Jul-29 11:31N 39°26' W 000°20'0 0.0
2016-Jul-29 10:31N 39°26' W 000°20'0 0.0
2016-Jul-29 09:31N 39°26' W 000°20'0 0.0
2016-Jul-29 08:31N 39°26' W 000°20'0 0.0
2016-Jul-29 07:31N 39°26' W 000°20'0 0.0
2016-Jul-29 06:31N 39°26' W 000°20'0 0.0
2016-Jul-29 05:31N 39°26' W 000°20'0 0.0
2016-Jul-29 04:31N 39°26' W 000°20'0 0.2
2016-Jul-29 03:33N 39°26' W 000°20'7 6.8
2016-Jul-29 02:28N 39°25' W 000°10'3 3.2
2016-Jul-29 01:34N 39°27' W 000°07'0 0.3
2016-Jul-29 00:34N 39°26' W 000°06'0 0.2
2016-Jul-28 23:33N 39°26' W 000°07'2 0.1
2016-Jul-28 07:23N 39°26' W 000°04'3412.1
2016-Jul-28 04:34N 39°18' E 000°39'1312.7
2016-Jul-28 03:32N 39°17' E 000°56'1212.4
2016-Jul-28 02:32N 39°15' E 001°11'1212.3
2016-Jul-28 01:33N 39°13' E 001°27'1212.2
2016-Jul-28 00:33N 39°11' E 001°42'1312.4
2016-Jul-27 23:33N 39°08' E 001°58'1212.5
2016-Jul-27 22:33N 39°05' E 002°13'1312.6
2016-Jul-27 21:33N 39°03' E 002°29'1212.3
2016-Jul-27 20:33N 38°60' E 002°45'1212.2
2016-Jul-27 19:34N 38°57' E 003°00'1212.3
2016-Jul-27 18:33N 38°54' E 003°15'1212.1
2016-Jul-27 17:32N 38°51' E 003°31'1212.0
2016-Jul-27 16:33N 38°48' E 003°45'7212.0
2016-Jul-27 10:33N 38°31' E 005°15'12717.9
2016-Jul-27 03:27N 38°01' E 007°53'1820.4
2016-Jul-27 02:33N 37°56' E 008°15'2320.4
2016-Jul-27 01:26N 37°51' E 008°43'1820.3
2016-Jul-27 00:33N 37°47' E 009°06'2020.6
2016-Jul-26 23:33N 37°44' E 009°31'8620.2
2016-Jul-26 19:16N 37°24' E 011°17'1719.9
2016-Jul-26 18:25N 37°16' E 011°36'2019.7
2016-Jul-26 17:26N 37°08' E 011°58'1819.8
2016-Jul-26 16:32N 37°03' E 012°20'2020.1
2016-Jul-26 15:33N 36°57' E 012°43'2020.0
2016-Jul-26 14:34N 36°52' E 013°07'2019.5
2016-Jul-26 13:33N 36°47' E 013°31'1918.9
2016-Jul-26 12:33N 36°42' E 013°53'1918.7
2016-Jul-26 11:33N 36°35' E 014°15'2019.9
2016-Jul-26 10:33N 36°30' E 014°39'2220.3
2016-Jul-26 09:29N 36°29' E 015°06'39220.2
2016-Jul-25 14:05N 36°25' E 023°13'1420.1
2016-Jul-25 13:25N 36°36' E 023°22'1820.4
2016-Jul-25 12:33N 36°51' E 023°34'2120.9
2016-Jul-25 11:32N 37°09' E 023°48'2121.1
2016-Jul-25 10:33N 37°27' E 024°01'2120.1
2016-Jul-25 09:31N 37°44' E 024°16'  
2016-Jul-22 22:33N 39°51' E 025°46'2118.1
2016-Jul-22 21:25N 40°02' E 026°08'1411.9
2016-Jul-22 20:14N 40°10' E 026°23'2913.7
2016-Jul-22 18:08N 40°29' E 026°52'  
Track history (hours):
 
Tides and Currents Weather Stations Pressure Air Temp Water Temp Dewpoint Dewpoint Depression Visibility Wind Speed Wind Dir Waves Ship Positions

Seago Piraeus

Last reported at 2016-Jul-29 15:31 UTC. Time now 2016-Jul-29 15:52 UTC.
Position N 39°26' W 000°20'.

Length 294 m; draft 13.4 m.

Type: Ship (hazmat cat A). MMSI: 219117000.

Date/timePositionNaut miles runAvg speedWind from/ knotsBaromVisibWave heightAir tempDewpointWater temp
2016-Jul-29 15:31N 39°26' W 000°20'0 0.0
2016-Jul-29 14:31N 39°26' W 000°20'0 0.0
2016-Jul-29 13:31N 39°26' W 000°20'0 0.0
2016-Jul-29 12:31N 39°26' W 000°20'0 0.0
2016-Jul-29 11:31N 39°26' W 000°20'0 0.0
2016-Jul-29 10:31N 39°26' W 000°20'0 0.0
2016-Jul-29 09:31N 39°26' W 000°20'0 0.0
2016-Jul-29 08:31N 39°26' W 000°20'0 0.0
2016-Jul-29 07:31N 39°26' W 000°20'0 0.0
2016-Jul-29 06:31N 39°26' W 000°20'0 0.0
2016-Jul-29 05:31N 39°26' W 000°20'0 0.0
2016-Jul-29 04:31N 39°26' W 000°20'0 0.2
2016-Jul-29 03:33N 39°26' W 000°20'7 6.8
2016-Jul-29 02:28N 39°25' W 000°10'3 3.2
2016-Jul-29 01:34N 39°27' W 000°07'0 0.3
2016-Jul-29 00:34N 39°26' W 000°06'0 0.2
2016-Jul-28 23:33N 39°26' W 000°07'2 0.1
2016-Jul-28 07:23N 39°26' W 000°04'3412.1
2016-Jul-28 04:34N 39°18' E 000°39'1312.7
2016-Jul-28 03:32N 39°17' E 000°56'1212.4
2016-Jul-28 02:32N 39°15' E 001°11'1212.3
2016-Jul-28 01:33N 39°13' E 001°27'1212.2
2016-Jul-28 00:33N 39°11' E 001°42'1312.4
2016-Jul-27 23:33N 39°08' E 001°58'1212.5
2016-Jul-27 22:33N 39°05' E 002°13'1312.6
2016-Jul-27 21:33N 39°03' E 002°29'1212.3
2016-Jul-27 20:33N 38°60' E 002°45'1212.2
2016-Jul-27 19:34N 38°57' E 003°00'1212.3
2016-Jul-27 18:33N 38°54' E 003°15'1212.1
2016-Jul-27 17:32N 38°51' E 003°31'1212.0
2016-Jul-27 16:33N 38°48' E 003°45'7212.0
2016-Jul-27 10:33N 38°31' E 005°15'12717.9
2016-Jul-27 03:27N 38°01' E 007°53'1820.4
2016-Jul-27 02:33N 37°56' E 008°15'2320.4
2016-Jul-27 01:26N 37°51' E 008°43'1820.3
2016-Jul-27 00:33N 37°47' E 009°06'2020.6
2016-Jul-26 23:33N 37°44' E 009°31'8620.2
2016-Jul-26 19:16N 37°24' E 011°17'1719.9
2016-Jul-26 18:25N 37°16' E 011°36'2019.7
2016-Jul-26 17:26N 37°08' E 011°58'1819.8
2016-Jul-26 16:32N 37°03' E 012°20'2020.1
2016-Jul-26 15:33N 36°57' E 012°43'2020.0
2016-Jul-26 14:34N 36°52' E 013°07'2019.5
2016-Jul-26 13:33N 36°47' E 013°31'1918.9
2016-Jul-26 12:33N 36°42' E 013°53'1918.7
2016-Jul-26 11:33N 36°35' E 014°15'2019.9
2016-Jul-26 10:33N 36°30' E 014°39'2220.3
2016-Jul-26 09:29N 36°29' E 015°06'39220.2
2016-Jul-25 14:05N 36°25' E 023°13'1420.1
2016-Jul-25 13:25N 36°36' E 023°22'1820.4
2016-Jul-25 12:33N 36°51' E 023°34'2120.9
2016-Jul-25 11:32N 37°09' E 023°48'2121.1
2016-Jul-25 10:33N 37°27' E 024°01'2120.1
2016-Jul-25 09:31N 37°44' E 024°16'  
2016-Jul-22 22:33N 39°51' E 025°46'2118.1
2016-Jul-22 21:25N 40°02' E 026°08'1411.9
2016-Jul-22 20:14N 40°10' E 026°23'2913.7
2016-Jul-22 18:08N 40°29' E 026°52'  

Dump ship's entire track history